Latest Weather Observations for Port Augusta

IDS60801

Issued at 2:31 pm CST Friday 28 August 2015 (issued every 30 minutes, with the page automatically refreshed every 10 minutes)

About weather observations | Map of weather stations | Latest weather observations for SA | Other Formats
Station Details ID: 018201 Name: PORT AUGUSTA AERO Lat: -32.51 Lon: 137.72 Height: 13.97 m
Data from the previous 72 hours. | See also: Recent months at Port Augusta
Date/Time
CST
Temp
°C
App
Temp
°C
Dew
Point
Rel
Hum
%
Delta-T
°C
Wind Press
QNH
hPa
Press
MSL
hPa
Rain
since 9 am
mm
Dir
 
Spd
km/h
Gust
km/h
Spd
kts
Gust
kts
28/02:30pm 16.8 12.3 6.3 50 5.1 SE 19 26 10 14 1025.9 - 0.0
28/02:00pm 16.5 13.1 6.1 50 5.0 SE 13 19 7 10 1026.1 - 0.0
28/01:30pm 16.7 13.3 5.9 49 5.2 ESE 13 20 7 11 1026.5 - 0.0
28/01:00pm 16.7 13.4 6.5 51 5.0 ESE 13 20 7 11 1027.0 - 0.0
28/12:30pm 15.9 12.2 6.1 52 4.7 ESE 15 22 8 12 1027.6 - 0.0
28/12:00pm 15.5 12.2 6.2 54 4.5 SE 13 22 7 12 1028.2 1028.1 0.0
28/11:30am 14.5 11.5 6.1 57 4.0 SE 11 17 6 9 1028.7 - 0.0
28/11:00am 13.7 10.2 5.6 58 3.8 SE 13 19 7 10 1029.2 - 0.0
28/10:30am 13.7 8.9 5.8 59 3.7 ESE 20 28 11 15 1029.3 - 0.0
28/10:00am 12.8 8.3 5.9 63 3.2 SE 19 33 10 18 1029.4 - 0.0
28/09:30am 12.4 7.6 5.8 64 3.1 SSE 20 28 11 15 1029.5 - 0.0
28/09:00am 11.6 6.4 7.3 75 2.1 SSE 24 30 13 16 1029.6 1029.5 0.2
28/08:30am 10.9 6.1 7.4 79 1.7 SSE 22 28 12 15 1029.6 - 0.2
28/08:00am 10.0 5.3 7.9 87 1.0 SSE 22 28 12 15 1029.2 - 0.2
28/07:30am 8.4 4.9 7.0 91 0.7 SE 15 20 8 11 1029.0 - 0.2
28/07:00am 7.7 4.8 6.3 91 0.6 SSE 11 17 6 9 1028.8 - 0.2
28/06:30am 8.0 4.3 6.3 89 0.8 SSE 15 20 8 11 1028.7 - 0.2
28/06:00am 8.4 4.1 6.9 90 0.7 S 19 24 10 13 1028.3 1028.2 0.2
28/05:30am 8.6 4.7 7.1 90 0.7 SSE 17 20 9 11 1028.1 - 0.2
28/05:00am 7.5 5.0 6.4 93 0.5 SE 9 15 5 8 1028.0 - 0.2
28/04:43am 6.2 3.7 4.7 90 0.6 ESE 7 11 4 6 1027.9 - 0.2
28/04:30am 8.2 5.0 6.8 91 0.6 SSE 13 20 7 11 1027.8 - 0.2
28/04:00am 8.2 6.4 7.1 93 0.5 SSE 6 9 3 5 1027.8 - 0.2
28/03:30am 8.1 6.1 7.0 93 0.5 SSE 7 9 4 5 1027.6 - 0.2
28/03:00am 7.4 4.8 6.3 93 0.5 S 9 11 5 6 1027.7 1027.6 0.2
28/02:48am 7.3 4.3 6.1 92 0.5 S 11 13 6 7 1027.7 - 0.2
28/02:30am 7.1 4.0 5.7 91 0.6 S 11 13 6 7 1027.9 - 0.2
28/02:00am 8.2 5.3 6.7 90 0.7 S 11 17 6 9 1028.0 - 0.2
28/01:30am 8.6 5.5 7.2 91 0.7 SSW 13 17 7 9 1028.1 - 0.2
28/01:00am 8.2 5.0 7.0 92 0.6 SW 13 17 7 9 1028.3 - 0.0
28/12:30am 8.9 5.9 7.5 91 0.7 S 13 17 7 9 1028.3 - 0.0
28/12:00am 8.7 5.2 7.3 91 0.7 SSW 15 17 8 9 1028.3 1028.2 0.0
 
Date/Time
CST
Temp
°C
App
Temp
°C
Dew
Point
Rel
Hum
%
Delta-T
°C
Wind Press
QNH
hPa
Press
MSL
hPa
Rain
since 9 am
mm
Dir
 
Spd
km/h
Gust
km/h
Spd
kts
Gust
kts
27/11:30pm 9.3 5.9 7.7 90 0.8 S 15 17 8 9 1028.4 - 0.0
27/11:00pm 8.7 5.7 7.5 92 0.6 SSW 13 17 7 9 1028.4 - 0.0
27/10:30pm 9.3 7.4 7.6 89 0.8 SSE 7 9 4 5 1028.6 - 0.0
27/10:00pm 10.4 7.6 8.5 88 0.9 SE 13 20 7 11 1028.4 - 0.0
27/09:30pm 10.3 6.7 8.4 88 0.9 SSE 17 20 9 11 1028.2 - 0.0
27/09:00pm 9.4 7.4 7.3 87 1.0 SE 7 9 4 5 1028.1 1028.0 0.0
27/08:30pm 9.7 6.7 7.8 88 0.9 SSE 13 17 7 9 1028.0 - 0.0
27/08:00pm 9.4 6.6 6.8 84 1.2 SSE 11 15 6 8 1028.0 - 0.0
27/07:30pm 10.6 6.8 7.5 81 1.5 SSE 17 19 9 10 1027.6 - 0.0
27/07:00pm 11.0 7.5 7.1 77 1.9 SE 15 20 8 11 1027.5 - 0.0
27/06:30pm 11.3 7.2 6.4 72 2.3 SSE 17 20 9 11 1027.3 - 0.0
27/06:00pm 12.4 7.8 5.6 63 3.1 SSE 19 22 10 12 1027.0 1026.9 0.0
27/05:30pm 13.4 8.1 5.1 57 3.9 SSE 22 28 12 15 1026.6 - 0.0
27/05:00pm 14.2 8.6 5.6 56 4.1 SE 24 32 13 17 1026.2 - 0.0
27/04:30pm 14.2 8.7 6.1 58 3.9 SE 24 32 13 17 1026.0 - 0.0
27/04:00pm 14.7 9.1 5.5 54 4.4 SE 24 30 13 16 1025.8 - 0.0
27/03:30pm 14.9 9.1 4.6 50 4.8 SE 24 35 13 19 1025.8 - 0.0
27/03:00pm 15.2 9.8 4.3 48 5.0 SSE 22 30 12 16 1025.8 1025.7 0.0
27/02:30pm 15.3 8.7 4.4 48 5.1 SSE 28 37 15 20 1025.7 - 0.0
27/02:00pm 14.5 8.3 4.2 50 4.7 SE 26 35 14 19 1025.8 - 0.0
27/01:30pm 14.6 10.1 6.2 57 4.0 SE 19 30 10 16 1026.2 - 0.0
27/01:00pm 14.4 9.8 6.3 58 3.9 SE 20 32 11 17 1026.3 - 0.0
27/12:30pm 13.9 11.1 7.0 63 3.4 ESE 11 17 6 9 1026.9 - 0.0
27/12:00pm 11.8 9.8 8.5 80 1.6 SSW 9 15 5 8 1027.3 1027.2 0.0
27/11:30am 12.7 9.2 7.0 68 2.7 SE 15 24 8 13 1027.5 - 0.0
27/11:00am 13.0 8.9 6.4 64 3.1 ESE 17 20 9 11 1027.7 - 0.0
27/10:30am 12.5 8.8 6.3 66 2.9 SE 15 28 8 15 1027.6 - 0.0
27/10:00am 12.5 10.4 6.5 67 2.9 SE 7 15 4 8 1027.5 - 0.0
27/09:30am 12.4 8.7 6.5 67 2.8 SSW 15 22 8 12 1027.8 - 0.0
27/09:00am 11.1 9.0 6.5 73 2.2 WSW 7 9 4 5 1027.6 1027.5 0.0
27/08:30am 9.6 7.9 5.8 77 1.7 SSW 4 9 2 5 1027.5 - 0.0
27/08:00am 8.1 5.5 6.1 87 0.9 SW 9 11 5 6 1027.3 - 0.0
27/07:30am 6.6 5.4 4.8 88 0.8 CALM 0 0 0 0 1026.8 - 0.0
27/07:00am 6.6 3.6 4.3 85 1.0 S 9 11 5 6 1026.4 - 0.0
27/06:30am 7.0 4.1 4.8 86 1.0 S 9 13 5 7 1026.0 - 0.0
27/06:00am 6.3 2.5 4.1 86 0.9 SSW 13 19 7 10 1025.7 1025.6 0.0
27/05:30am 6.4 1.9 4.4 87 0.9 SSW 17 20 9 11 1025.3 - 0.0
27/05:00am 6.3 3.7 4.0 85 1.0 S 7 11 4 6 1025.0 - 0.0
27/04:30am 7.7 3.6 4.5 80 1.4 S 15 20 8 11 1024.9 - 0.0
27/04:00am 6.0 2.9 3.5 84 1.0 SSW 9 13 5 7 1024.8 - 0.0
27/03:30am 6.5 4.1 4.3 86 0.9 SSW 6 7 3 4 1024.8 - 0.0
27/03:00am 6.8 3.5 4.5 85 1.0 SSW 11 15 6 8 1024.9 1024.8 0.0
27/02:30am 6.9 4.0 4.7 86 1.0 S 9 13 5 7 1024.9 - 0.0
27/02:00am 6.7 3.8 4.5 86 1.0 SW 9 13 5 7 1025.0 - 0.0
27/01:30am 7.2 4.7 4.5 83 1.2 SSW 7 15 4 8 1025.0 - 0.0
27/01:00am 7.4 2.6 4.4 81 1.3 SW 19 20 10 11 1025.2 - 0.0
27/12:30am 8.5 4.1 4.7 77 1.7 SSW 17 22 9 12 1025.1 - 0.0
27/12:00am 8.1 4.1 5.0 81 1.4 SSW 15 20 8 11 1025.1 1025.0 0.0
 
Date/Time
CST
Temp
°C
App
Temp
°C
Dew
Point
Rel
Hum
%
Delta-T
°C
Wind Press
QNH
hPa
Press
MSL
hPa
Rain
since 9 am
mm
Dir
 
Spd
km/h
Gust
km/h
Spd
kts
Gust
kts
26/11:30pm 8.3 4.4 5.2 81 1.4 SSW 15 19 8 10 1025.1 - 0.0
26/11:00pm 8.2 3.8 4.8 79 1.5 SW 17 19 9 10 1025.2 - 0.0
26/10:30pm 8.0 4.2 3.8 75 1.8 S 13 17 7 9 1025.2 - 0.0
26/10:00pm 7.4 4.3 3.6 77 1.6 SSW 9 11 5 6 1025.3 - 0.0
26/09:30pm 8.5 6.0 3.8 72 2.0 SW 6 9 3 5 1025.1 - 0.0
26/09:00pm 10.0 5.8 4.0 66 2.6 SSE 15 19 8 10 1025.0 1024.9 0.0
26/08:30pm 10.2 5.6 3.5 63 2.9 SSE 17 19 9 10 1024.9 - 0.0
26/08:00pm 11.3 6.9 2.9 56 3.7 SE 15 19 8 10 1024.8 - 0.0
26/07:30pm 11.6 8.0 3.1 56 3.7 SE 11 17 6 9 1024.6 - 0.0
26/07:00pm 11.9 8.4 3.4 56 3.8 SSE 11 13 6 7 1024.5 - 0.0
26/06:30pm 12.2 8.3 3.2 54 4.0 SSE 13 15 7 8 1024.2 - 0.0
26/06:00pm 12.9 8.7 3.6 53 4.1 SSE 15 19 8 10 1023.9 1023.8 0.0
26/05:30pm 13.5 8.7 2.7 48 4.8 SSE 17 22 9 12 1023.6 - 0.0
26/05:00pm 14.0 9.7 3.5 49 4.7 S 15 19 8 10 1023.3 - 0.0
26/04:30pm 14.0 9.6 4.9 54 4.2 SE 17 22 9 12 1022.9 - 0.0
26/04:00pm 14.0 9.6 4.9 54 4.2 SSE 17 22 9 12 1022.9 - 0.0
26/03:30pm 14.4 9.8 3.5 48 4.9 SSW 17 22 9 12 1022.9 - 0.0
26/03:00pm 14.5 11.3 3.0 46 5.1 ESE 9 11 5 6 1022.9 1022.8 0.0
26/02:30pm 14.7 11.3 3.8 48 5.0 SE 11 17 6 9 1023.1 - 0.0
26/02:00pm 15.0 11.8 2.9 44 5.4 ESE 9 13 5 7 1023.1 - 0.0
26/01:30pm 15.0 11.0 2.9 44 5.4 ESE 13 17 7 9 1023.4 - 0.0
26/01:00pm 15.1 10.2 2.3 42 5.7 SE 17 22 9 12 1023.7 - 0.0
26/12:30pm 15.3 11.5 1.8 40 5.9 SSE 11 20 6 11 1024.2 - 0.0
26/12:00pm 14.9 10.4 2.4 43 5.5 SE 15 22 8 12 1024.6 1024.5 0.0
26/11:30am 15.7 11.4 3.5 44 5.6 ESE 15 30 8 16 1025.1 - 0.0
26/11:00am 15.1 10.9 3.9 47 5.1 SE 15 22 8 12 1025.1 - 0.0
26/10:30am 14.4 9.9 4.1 50 4.7 SE 17 22 9 12 1025.5 - 0.0
26/10:00am 13.7 9.7 5.1 56 4.0 SSE 15 20 8 11 1025.6 - 0.0
26/09:30am 13.4 9.3 6.3 62 3.4 SE 17 22 9 12 1025.6 - 0.0
26/09:00am 12.5 8.7 5.7 63 3.2 SE 15 22 8 12 1025.7 1025.6 0.0
26/08:30am 11.2 6.6 6.3 72 2.3 SSE 20 24 11 13 1025.4 - 0.0
26/08:00am 9.2 8.3 7.6 90 0.8 NW 2 6 1 3 1025.2 - 0.0
26/07:30am 6.0 4.5 4.8 92 0.5 NNW 2 6 1 3 1025.1 - 0.0
26/07:00am 4.3 2.1 3.1 92 0.5 N 4 7 2 4 1024.8 - 0.0
26/06:30am 4.1 1.4 2.6 90 0.6 WSW 6 9 3 5 1024.5 - 0.0
26/06:00am 4.2 1.5 2.4 88 0.7 WSW 6 7 3 4 1024.5 1024.4 0.0
26/05:30am 5.0 2.2 3.2 88 0.7 SSW 7 9 4 5 1024.5 - 0.0
26/05:00am 4.7 2.0 2.9 88 0.7 SSW 6 7 3 4 1024.6 - 0.0
26/04:30am 4.5 1.6 2.7 88 0.7 WSW 7 9 4 5 1024.5 - 0.0
26/04:00am 5.6 3.1 3.9 89 0.7 SW 6 7 3 4 1024.3 - 0.0
26/03:30am 4.8 2.2 3.1 89 0.7 SW 6 7 3 4 1024.4 - 0.0
26/03:00am 6.0 2.9 3.8 86 0.9 SSW 9 11 5 6 1024.7 1024.6 0.0
26/02:30am 6.3 4.9 3.8 84 1.1 CALM 0 4 0 2 1025.1 - 0.0
26/02:00am 7.4 5.1 4.7 83 1.2 WNW 6 7 3 4 1025.4 - 0.0
26/01:30am 8.6 6.1 4.8 77 1.7 SE 7 13 4 7 1025.7 - 0.0
26/01:00am 6.6 4.0 4.1 84 1.1 N 7 11 4 6 1026.0 - 0.0
26/12:30am 8.8 5.3 5.5 80 1.5 SSE 13 17 7 9 1026.1 - 0.0
26/12:00am 9.2 5.0 5.8 79 1.5 SSE 17 20 9 11 1026.1 1026.0 0.0
 
Date/Time
CST
Temp
°C
App
Temp
°C
Dew
Point
Rel
Hum
%
Delta-T
°C
Wind Press
QNH
hPa
Press
MSL
hPa
Rain
since 9 am
mm
Dir
 
Spd
km/h
Gust
km/h
Spd
kts
Gust
kts
25/11:30pm 9.4 4.8 5.8 78 1.6 SSE 19 22 10 12 1026.2 - 0.0
25/11:00pm 9.7 5.1 5.7 76 1.8 SSE 19 22 10 12 1026.1 - 0.0
25/10:30pm 9.9 5.1 5.5 74 2.0 SSE 20 24 11 13 1026.4 - 0.0
25/10:00pm 9.9 6.1 5.7 75 1.9 SSE 15 20 8 11 1026.7 - 0.0
25/09:30pm 10.5 6.3 5.7 72 2.2 SSE 17 24 9 13 1026.5 - 0.0
25/09:00pm 10.9 5.7 5.4 69 2.5 S 22 30 12 16 1026.3 1026.2 0.0
25/08:30pm 10.9 5.4 6.1 72 2.2 S 24 33 13 18 1026.2 - 0.0
25/08:00pm 11.1 4.9 6.0 71 2.4 S 28 39 15 21 1025.8 - 0.0
25/07:30pm 10.8 5.0 6.4 74 2.1 S 26 35 14 19 1025.6 - 0.0
25/07:00pm 11.0 4.0 6.2 72 2.2 S 32 41 17 22 1025.4 - 0.0
25/06:30pm 11.0 4.8 6.0 71 2.3 S 28 35 15 19 1025.3 - 0.0
25/06:00pm 11.7 5.8 5.8 67 2.7 S 26 35 14 19 1025.3 1025.2 0.0
25/05:30pm 12.9 5.9 4.1 55 4.0 S 30 39 16 21 1025.1 - 0.0
25/05:00pm 13.4 7.1 4.0 53 4.3 S 26 32 14 17 1024.8 - 0.0
25/04:30pm 14.3 7.6 3.7 49 4.8 S 28 35 15 19 1024.7 - 0.0
25/04:00pm 14.1 7.0 3.3 48 4.9 SSE 30 39 16 21 1024.6 - 0.0
25/03:30pm 15.2 8.9 3.7 46 5.3 SSE 26 37 14 20 1024.9 - 0.0
25/03:00pm 15.3 9.3 3.5 45 5.4 SSE 24 32 13 17 1025.0 1024.9 0.0

Other Formats:

Comma delimited format used in spreadsheet applications
http://www.bom.gov.au/fwo/IDS60801/IDS60801.95666.axf

JavaScript Object Notation format (JSON) in row-major order
http://www.bom.gov.au/fwo/IDS60801/IDS60801.95666.json